createdAt,value
2019-05-07T00:01:33.917Z,0.20
2019-05-07T00:04:02.355Z,0.20
2019-05-07T00:06:32.572Z,0.40
2019-05-07T00:09:03.224Z,0.50
2019-05-07T00:11:33.097Z,0.20
2019-05-07T00:14:03.143Z,0.20
2019-05-07T00:16:32.510Z,0.50
2019-05-07T00:19:02.073Z,0.50
2019-05-07T00:21:32.578Z,0.50
2019-05-07T00:24:02.239Z,0.40
2019-05-07T00:26:32.042Z,0.70
2019-05-07T00:29:02.256Z,0.80
2019-05-07T00:31:32.605Z,0.80
2019-05-07T00:34:14.995Z,1.00
2019-05-07T00:36:45.110Z,1.00
2019-05-07T00:39:27.247Z,1.20
2019-05-07T00:42:12.995Z,1.30
2019-05-07T00:45:13.261Z,1.30
2019-05-07T00:47:28.999Z,0.90
2019-05-07T00:49:59.419Z,0.70
2019-05-07T00:52:29.084Z,0.70
2019-05-07T00:54:57.547Z,1.10
2019-05-07T00:57:26.315Z,1.30
2019-05-07T00:59:55.108Z,1.40
2019-05-07T01:02:23.900Z,1.50
2019-05-07T01:04:53.241Z,1.60
2019-05-07T01:07:23.032Z,1.40
2019-05-07T01:09:52.490Z,1.20
2019-05-07T01:12:22.177Z,1.40
2019-05-07T01:14:52.887Z,1.70
2019-05-07T01:17:22.763Z,1.80
2019-05-07T01:19:53.194Z,1.50
2019-05-07T01:22:23.766Z,1.40
2019-05-07T01:24:53.736Z,1.60
2019-05-07T01:27:22.827Z,1.70
2019-05-07T01:29:52.829Z,1.50
2019-05-07T01:32:23.330Z,1.30
2019-05-07T01:35:02.971Z,1.60
2019-05-07T01:37:32.590Z,1.70
2019-05-07T01:40:03.046Z,1.70
2019-05-07T01:42:32.782Z,1.50
2019-05-07T01:45:02.517Z,1.20
2019-05-07T01:47:33.016Z,1.20
2019-05-07T01:50:02.987Z,1.20
2019-05-07T01:52:33.135Z,1.50
2019-05-07T01:55:03.290Z,1.70
2019-05-07T01:57:32.644Z,1.70
2019-05-07T02:00:02.557Z,1.50
2019-05-07T02:02:32.978Z,1.40
2019-05-07T02:05:19.287Z,1.40
2019-05-07T02:07:49.407Z,1.40
2019-05-07T02:10:28.939Z,1.70
2019-05-07T02:12:57.415Z,1.80
2019-05-07T02:15:25.873Z,1.80
2019-05-07T02:17:54.343Z,1.90
2019-05-07T02:20:22.795Z,2.00
2019-05-07T02:22:53.250Z,1.90
2019-05-07T02:25:22.207Z,1.70
2019-05-07T02:27:52.820Z,1.70
2019-05-07T02:30:23.647Z,1.90
2019-05-07T02:32:54.062Z,2.00
2019-05-07T02:35:23.495Z,2.10
2019-05-07T02:37:56.821Z,2.00
2019-05-07T02:40:33.870Z,2.10
2019-05-07T02:43:03.232Z,2.00
2019-05-07T02:45:33.512Z,2.20
2019-05-07T02:48:03.489Z,1.90
2019-05-07T02:50:35.441Z,1.70
2019-05-07T02:53:05.609Z,1.60
2019-05-07T02:55:43.514Z,1.70
2019-05-07T02:58:13.744Z,1.70
2019-05-07T03:00:43.665Z,1.70
2019-05-07T03:03:13.736Z,1.60
2019-05-07T03:05:43.402Z,1.60
2019-05-07T03:08:13.466Z,1.60
2019-05-07T03:10:44.187Z,1.80
2019-05-07T03:13:13.728Z,1.80
2019-05-07T03:15:43.547Z,1.70
2019-05-07T03:18:13.889Z,1.70
2019-05-07T03:20:45.993Z,1.70
2019-05-07T03:23:16.164Z,2.10
2019-05-07T03:25:49.224Z,2.10
2019-05-07T03:28:18.840Z,1.90
2019-05-07T03:31:06.385Z,2.10
2019-05-07T03:33:39.997Z,2.10
2019-05-07T03:36:09.401Z,1.90
2019-05-07T03:38:38.167Z,1.80
2019-05-07T03:41:09.293Z,1.60
2019-05-07T03:43:37.834Z,1.70
2019-05-07T03:46:13.802Z,1.70
2019-05-07T03:48:44.042Z,1.70
2019-05-07T03:51:13.796Z,1.70
2019-05-07T03:53:43.724Z,2.00
2019-05-07T03:56:13.237Z,2.00
2019-05-07T03:58:43.326Z,1.80
2019-05-07T04:01:13.380Z,1.70
2019-05-07T04:03:44.723Z,1.90
2019-05-07T04:06:12.967Z,1.90
2019-05-07T04:08:43.347Z,1.80
2019-05-07T04:11:13.915Z,2.10
2019-05-07T04:13:44.092Z,2.40
2019-05-07T04:16:13.556Z,2.30
2019-05-07T04:18:43.656Z,2.20
2019-05-07T04:21:14.240Z,2.10
2019-05-07T04:23:43.878Z,2.00
2019-05-07T04:26:17.046Z,2.00
2019-05-07T04:28:53.713Z,2.10
2019-05-07T04:31:23.012Z,2.10
2019-05-07T04:33:53.171Z,2.50
2019-05-07T04:36:23.196Z,2.70
2019-05-07T04:38:53.232Z,2.70
2019-05-07T04:41:23.416Z,2.40
2019-05-07T04:43:54.059Z,2.50
2019-05-07T04:46:23.718Z,2.70
2019-05-07T04:48:53.135Z,2.50
2019-05-07T04:51:23.692Z,2.40
2019-05-07T04:53:54.079Z,2.40
2019-05-07T04:56:23.891Z,2.40
2019-05-07T04:58:54.075Z,2.60
2019-05-07T05:01:24.187Z,3.00
2019-05-07T05:03:54.081Z,3.40
2019-05-07T05:06:24.211Z,3.60
2019-05-07T05:08:56.305Z,3.70
2019-05-07T05:11:24.188Z,3.70
2019-05-07T05:13:53.368Z,3.40
2019-05-07T05:16:26.470Z,3.30
2019-05-07T05:18:57.804Z,3.50
2019-05-07T05:21:45.963Z,3.40
2019-05-07T05:24:18.995Z,3.90
2019-05-07T05:26:47.541Z,4.30
2019-05-07T05:29:19.391Z,4.10
2019-05-07T05:31:48.185Z,3.80
2019-05-07T05:34:16.896Z,3.70
2019-05-07T05:36:45.663Z,4.20
2019-05-07T05:39:14.461Z,4.10
2019-05-07T05:41:44.723Z,3.70
2019-05-07T05:44:14.905Z,4.10
2019-05-07T05:46:43.450Z,4.60
2019-05-07T05:49:12.298Z,4.90
2019-05-07T05:51:45.893Z,4.30
2019-05-07T05:54:24.879Z,4.20
2019-05-07T05:57:13.363Z,4.30
2019-05-07T06:00:02.023Z,5.00
2019-05-07T06:02:32.486Z,4.80
2019-05-07T06:05:19.319Z,5.70
2019-05-07T06:07:49.442Z,6.30
2019-05-07T06:10:19.552Z,6.30
2019-05-07T06:12:49.731Z,6.00
2019-05-07T06:15:23.951Z,5.90
2019-05-07T06:17:56.469Z,7.00
2019-05-07T06:20:26.831Z,7.30
2019-05-07T06:23:13.541Z,6.90
2019-05-07T06:25:45.399Z,5.80
2019-05-07T06:28:14.209Z,6.70
2019-05-07T06:30:42.984Z,7.70
2019-05-07T06:33:12.394Z,7.40
2019-05-07T06:35:42.853Z,6.90
2019-05-07T06:38:12.500Z,6.70
2019-05-07T06:40:45.615Z,7.40
2019-05-07T06:43:24.644Z,8.50
2019-05-07T06:45:56.114Z,9.20
2019-05-07T06:48:37.891Z,9.80
2019-05-07T06:50:57.817Z,9.50
2019-05-07T06:53:33.377Z,9.40
2019-05-07T06:56:04.233Z,9.00
2019-05-07T06:58:34.700Z,9.40
2019-05-07T07:01:16.321Z,10.00
2019-05-07T07:03:58.768Z,10.00
2019-05-07T07:06:32.188Z,10.00
2019-05-07T07:09:22.268Z,8.80
2019-05-07T07:12:08.051Z,8.50
2019-05-07T07:14:36.588Z,9.00
2019-05-07T07:17:05.320Z,9.80
2019-05-07T07:19:36.139Z,10.00
2019-05-07T07:22:04.057Z,10.30
2019-05-07T07:24:33.005Z,8.90
2019-05-07T07:27:02.483Z,9.20
2019-05-07T07:29:33.088Z,10.10
2019-05-07T07:32:03.605Z,10.20
2019-05-07T07:34:33.789Z,9.60
2019-05-07T07:37:14.960Z,9.30
2019-05-07T07:39:40.111Z,9.90
2019-05-07T07:42:12.256Z,9.10
2019-05-07T07:44:42.578Z,9.90
2019-05-07T07:47:12.879Z,9.70
2019-05-07T07:49:42.164Z,10.20
2019-05-07T07:52:13.518Z,9.60
2019-05-07T07:54:42.896Z,9.70
2019-05-07T07:57:13.435Z,10.00
2019-05-07T07:59:58.941Z,11.10
2019-05-07T08:02:33.135Z,10.60
2019-05-07T08:05:02.176Z,10.00
2019-05-07T08:07:32.995Z,10.00
2019-05-07T08:10:02.600Z,10.70
2019-05-07T08:12:32.646Z,10.70
2019-05-07T08:15:14.537Z,10.50
2019-05-07T08:17:32.632Z,9.60
2019-05-07T08:20:02.573Z,9.40
2019-05-07T08:22:32.992Z,9.20
2019-05-07T08:25:01.937Z,9.70
2019-05-07T08:27:32.520Z,9.70
2019-05-07T08:30:02.960Z,9.80
2019-05-07T08:32:42.399Z,10.70
2019-05-07T08:35:14.985Z,11.50
2019-05-07T08:37:43.851Z,11.30
2019-05-07T08:40:12.941Z,9.90
2019-05-07T08:42:41.977Z,11.50
2019-05-07T08:45:29.402Z,14.80
2019-05-07T08:48:01.993Z,15.20
2019-05-07T08:50:32.570Z,12.40
2019-05-07T08:53:02.807Z,11.40
2019-05-07T08:55:32.251Z,11.10
2019-05-07T08:58:02.234Z,10.40
2019-05-07T09:00:32.620Z,10.50
2019-05-07T09:03:02.158Z,10.20
2019-05-07T09:05:32.350Z,9.90
2019-05-07T09:08:02.294Z,10.30
2019-05-07T09:10:32.552Z,10.50
2019-05-07T09:13:02.901Z,10.20
2019-05-07T09:15:32.119Z,9.30
2019-05-07T09:18:02.013Z,9.80
2019-05-07T09:20:32.181Z,10.60
2019-05-07T09:23:02.077Z,11.90
2019-05-07T09:25:32.576Z,11.90
2019-05-07T09:28:02.640Z,10.90
2019-05-07T09:30:42.132Z,11.40
2019-05-07T09:33:12.655Z,11.40
2019-05-07T09:35:43.091Z,11.10
2019-05-07T09:38:12.179Z,10.70
2019-05-07T09:40:42.180Z,11.00
2019-05-07T09:43:12.635Z,10.20
2019-05-07T09:45:42.070Z,9.70
2019-05-07T09:48:11.970Z,9.20
2019-05-07T09:50:42.791Z,9.70
2019-05-07T09:53:12.794Z,9.40
2019-05-07T09:55:42.547Z,9.30
2019-05-07T09:58:12.589Z,9.90
2019-05-07T10:00:42.477Z,10.80
2019-05-07T10:03:12.709Z,9.70
2019-05-07T10:05:42.689Z,9.30
2019-05-07T10:08:12.923Z,10.00
2019-05-07T10:10:42.498Z,9.80
2019-05-07T10:13:27.843Z,11.10
2019-05-07T10:15:56.619Z,11.80
2019-05-07T10:18:25.143Z,11.80
2019-05-07T10:20:53.860Z,11.30
2019-05-07T10:23:23.906Z,11.40
2019-05-07T10:25:53.524Z,11.30
2019-05-07T10:28:22.865Z,11.60
2019-05-07T10:30:52.267Z,11.30
2019-05-07T10:33:22.854Z,12.20
2019-05-07T10:35:52.903Z,11.10
2019-05-07T10:38:22.010Z,10.70
2019-05-07T10:40:50.899Z,11.80
2019-05-07T10:43:19.449Z,11.50
2019-05-07T10:45:49.623Z,10.90
2019-05-07T10:48:23.009Z,12.20
2019-05-07T10:51:02.598Z,12.70
2019-05-07T10:53:32.038Z,15.90
2019-05-07T10:56:02.536Z,12.90
2019-05-07T10:58:32.020Z,12.00
2019-05-07T11:01:02.943Z,14.20
2019-05-07T11:03:32.391Z,14.30
2019-05-07T11:06:01.229Z,14.90
2019-05-07T11:08:29.772Z,14.80
2019-05-07T11:10:58.227Z,13.10
2019-05-07T11:13:27.002Z,11.10
2019-05-07T11:15:57.540Z,11.30
2019-05-07T11:18:36.943Z,10.80
2019-05-07T11:21:06.420Z,11.00
2019-05-07T11:23:34.895Z,12.20
2019-05-07T11:26:03.355Z,11.70
2019-05-07T11:28:32.575Z,11.10
2019-05-07T11:31:02.051Z,10.70
2019-05-07T11:33:32.544Z,10.90
2019-05-07T11:36:02.068Z,11.10
2019-05-07T11:38:33.170Z,10.80
2019-05-07T11:41:02.300Z,10.80
2019-05-07T11:43:32.879Z,11.30
2019-05-07T11:46:09.036Z,10.80
2019-05-07T11:48:39.468Z,11.20
2019-05-07T11:51:16.535Z,10.90
2019-05-07T11:54:03.157Z,11.50
2019-05-07T11:56:32.825Z,12.20
2019-05-07T11:59:02.693Z,12.00
2019-05-07T12:01:43.529Z,12.70
2019-05-07T12:04:04.706Z,13.50
2019-05-07T12:06:33.163Z,13.40
2019-05-07T12:09:03.053Z,14.10
2019-05-07T12:11:32.728Z,13.60
2019-05-07T12:14:02.079Z,13.10
2019-05-07T12:16:32.052Z,13.00
2019-05-07T12:19:02.252Z,12.10
2019-05-07T12:21:31.237Z,12.50
2019-05-07T12:24:02.072Z,12.90
2019-05-07T12:26:31.375Z,13.30
2019-05-07T12:28:59.846Z,13.10
2019-05-07T12:31:35.917Z,13.60
2019-05-07T12:34:06.041Z,12.10
2019-05-07T12:36:34.936Z,11.90
2019-05-07T12:39:05.351Z,11.20
2019-05-07T12:41:34.883Z,10.70
2019-05-07T12:44:06.302Z,10.60
2019-05-07T12:46:35.564Z,10.50
2019-05-07T12:49:04.579Z,10.60
2019-05-07T12:51:37.780Z,10.60
2019-05-07T12:54:22.678Z,11.10
2019-05-07T12:56:51.997Z,11.70
2019-05-07T12:59:21.832Z,11.80
2019-05-07T13:01:53.872Z,11.70
2019-05-07T13:04:24.047Z,11.80
2019-05-07T13:07:08.902Z,12.00
2019-05-07T13:09:37.399Z,11.80
2019-05-07T13:12:07.509Z,12.80
2019-05-07T13:14:36.040Z,13.50
2019-05-07T13:17:04.679Z,13.20
2019-05-07T13:19:33.215Z,13.70
2019-05-07T13:22:02.428Z,12.30
2019-05-07T13:24:32.108Z,12.80
2019-05-07T13:27:03.117Z,13.40
2019-05-07T13:29:32.644Z,11.70
2019-05-07T13:32:03.369Z,12.30
2019-05-07T13:34:34.173Z,11.80
2019-05-07T13:37:04.499Z,10.80
2019-05-07T13:39:35.826Z,11.50
2019-05-07T13:42:24.211Z,12.10
2019-05-07T13:44:54.618Z,11.30
2019-05-07T13:47:25.247Z,12.40
2019-05-07T13:49:54.443Z,12.50
2019-05-07T13:52:26.103Z,11.90
2019-05-07T13:54:55.552Z,11.80
2019-05-07T13:57:24.168Z,12.10
2019-05-07T13:59:53.257Z,12.00
2019-05-07T14:02:23.596Z,11.80
2019-05-07T14:04:52.701Z,11.60
2019-05-07T14:07:22.124Z,11.50
2019-05-07T14:09:52.666Z,11.60
2019-05-07T14:12:22.971Z,11.10
2019-05-07T14:14:53.111Z,11.00
2019-05-07T14:17:22.536Z,11.40
2019-05-07T14:19:52.809Z,11.20
2019-05-07T14:22:22.493Z,10.20
2019-05-07T14:24:52.942Z,10.40
2019-05-07T14:27:21.799Z,11.10
2019-05-07T14:29:52.068Z,12.50
2019-05-07T14:32:22.335Z,13.60
2019-05-07T14:35:07.906Z,13.90
2019-05-07T14:37:41.852Z,13.70
2019-05-07T14:40:12.923Z,13.20
2019-05-07T14:42:44.844Z,12.60
2019-05-07T14:45:13.947Z,13.40
2019-05-07T14:47:44.789Z,13.80
2019-05-07T14:50:13.359Z,13.80
2019-05-07T14:52:43.441Z,13.80
2019-05-07T14:55:12.987Z,13.70
2019-05-07T14:57:42.219Z,14.00
2019-05-07T15:00:12.297Z,13.80
2019-05-07T15:02:42.102Z,13.20
2019-05-07T15:05:12.103Z,12.70
2019-05-07T15:07:40.736Z,12.50
2019-05-07T15:10:09.728Z,12.20
2019-05-07T15:12:38.203Z,12.60
2019-05-07T15:15:07.593Z,12.50
2019-05-07T15:17:38.285Z,12.60
2019-05-07T15:20:07.364Z,12.50
2019-05-07T15:22:50.105Z,11.80
2019-05-07T15:25:19.908Z,12.10
2019-05-07T15:27:50.091Z,12.40
2019-05-07T15:30:19.107Z,12.00
2019-05-07T15:32:48.991Z,11.90
2019-05-07T15:35:17.462Z,11.80
2019-05-07T15:37:46.228Z,12.50
2019-05-07T15:40:14.967Z,13.10
2019-05-07T15:42:43.418Z,13.00
2019-05-07T15:45:12.668Z,12.00
2019-05-07T15:47:43.360Z,12.20
2019-05-07T15:50:12.693Z,12.50
2019-05-07T15:52:58.054Z,12.60
2019-05-07T15:55:19.644Z,12.50
2019-05-07T15:57:48.462Z,12.30
2019-05-07T16:00:19.123Z,12.10
2019-05-07T16:02:53.588Z,11.80
2019-05-07T16:05:22.452Z,11.60
2019-05-07T16:07:51.451Z,11.80
2019-05-07T16:10:23.008Z,11.80
2019-05-07T16:12:53.168Z,11.90
2019-05-07T16:15:22.581Z,12.20
2019-05-07T16:17:58.843Z,12.10
2019-05-07T16:20:27.385Z,11.50
2019-05-07T16:23:13.924Z,11.40
2019-05-07T16:25:32.866Z,11.60
2019-05-07T16:28:04.435Z,11.70
2019-05-07T16:30:32.387Z,11.70
2019-05-07T16:33:02.643Z,11.80
2019-05-07T16:35:32.024Z,11.80
2019-05-07T16:38:00.748Z,11.40
2019-05-07T16:40:29.215Z,11.50
2019-05-07T16:42:57.666Z,11.80
2019-05-07T16:45:26.143Z,11.80
2019-05-07T16:47:54.895Z,11.40
2019-05-07T16:50:23.783Z,11.40
2019-05-07T16:52:52.565Z,11.80
2019-05-07T16:55:22.417Z,11.80
2019-05-07T16:58:05.102Z,12.10
2019-05-07T17:00:44.343Z,12.10
2019-05-07T17:03:16.094Z,11.90
2019-05-07T17:05:44.887Z,12.10
2019-05-07T17:08:15.319Z,12.10
2019-05-07T17:10:44.367Z,12.20
2019-05-07T17:13:12.810Z,12.10
2019-05-07T17:15:54.720Z,12.20
2019-05-07T17:18:25.179Z,12.00
2019-05-07T17:20:55.506Z,12.30
2019-05-07T17:23:25.346Z,11.90
2019-05-07T17:25:54.264Z,11.70
2019-05-07T17:28:22.989Z,11.60
2019-05-07T17:30:52.484Z,11.50
2019-05-07T17:33:22.876Z,11.50
2019-05-07T17:35:51.886Z,11.40
2019-05-07T17:38:22.874Z,11.20
2019-05-07T17:40:52.148Z,11.10
2019-05-07T17:43:23.195Z,10.90
2019-05-07T17:45:52.245Z,10.80
2019-05-07T17:48:22.995Z,10.70
2019-05-07T17:50:53.195Z,10.50
2019-05-07T17:53:22.509Z,10.40
2019-05-07T17:55:52.907Z,10.10
2019-05-07T17:58:21.331Z,10.00
2019-05-07T18:00:52.903Z,10.00
2019-05-07T18:03:35.319Z,10.10
2019-05-07T18:06:06.059Z,10.10
2019-05-07T18:08:34.694Z,9.90
2019-05-07T18:11:17.434Z,9.60
2019-05-07T18:13:33.971Z,9.50
2019-05-07T18:16:04.403Z,9.50
2019-05-07T18:18:33.002Z,9.70
2019-05-07T18:21:02.214Z,9.60
2019-05-07T18:23:32.107Z,9.40
2019-05-07T18:26:01.211Z,9.20
2019-05-07T18:28:29.718Z,9.30
2019-05-07T18:30:58.915Z,9.40
2019-05-07T18:33:33.597Z,9.20
2019-05-07T18:36:02.962Z,9.00
2019-05-07T18:38:32.967Z,8.80
2019-05-07T18:41:02.684Z,8.60
2019-05-07T18:43:33.123Z,8.70
2019-05-07T18:46:02.446Z,8.60
2019-05-07T18:48:31.043Z,8.40
2019-05-07T18:50:59.570Z,8.40
2019-05-07T18:53:28.467Z,8.40
2019-05-07T18:55:56.917Z,8.20
2019-05-07T18:58:25.763Z,8.10
2019-05-07T19:01:02.717Z,8.10
2019-05-07T19:03:32.465Z,8.00
2019-05-07T19:06:02.774Z,8.00
2019-05-07T19:08:32.644Z,7.90
2019-05-07T19:11:05.779Z,7.90
2019-05-07T19:13:33.931Z,7.80
2019-05-07T19:16:02.955Z,7.70
2019-05-07T19:18:32.295Z,7.70
2019-05-07T19:21:00.874Z,7.70
2019-05-07T19:23:29.347Z,7.60
2019-05-07T19:25:58.067Z,7.50
2019-05-07T19:28:26.779Z,7.50
2019-05-07T19:30:55.247Z,7.40
2019-05-07T19:33:27.018Z,7.50
2019-05-07T19:35:54.215Z,7.40
2019-05-07T19:38:22.990Z,7.30
2019-05-07T19:40:52.807Z,7.20
2019-05-07T19:43:21.720Z,7.00
2019-05-07T19:45:52.243Z,7.00
2019-05-07T19:48:20.439Z,7.10
2019-05-07T19:50:48.903Z,7.10
2019-05-07T19:53:20.378Z,7.10
2019-05-07T19:56:04.527Z,7.10
2019-05-07T19:58:33.343Z,7.10
2019-05-07T20:01:04.220Z,7.00
2019-05-07T20:03:32.667Z,6.90
2019-05-07T20:06:02.437Z,6.80
2019-05-07T20:08:32.315Z,6.80
2019-05-07T20:11:15.087Z,6.80
2019-05-07T20:13:43.871Z,6.70
2019-05-07T20:16:14.407Z,6.60
2019-05-07T20:18:43.202Z,6.50
2019-05-07T20:21:12.970Z,6.50
2019-05-07T20:23:43.215Z,6.50
2019-05-07T20:26:12.640Z,6.30
2019-05-07T20:28:41.861Z,6.30
2019-05-07T20:31:12.239Z,6.10
2019-05-07T20:33:42.200Z,6.00
2019-05-07T20:36:11.155Z,5.70
2019-05-07T20:38:39.990Z,5.70
2019-05-07T20:41:08.887Z,5.60
2019-05-07T20:43:37.334Z,5.50
2019-05-07T20:46:06.164Z,5.50
2019-05-07T20:48:34.883Z,5.40
2019-05-07T20:51:03.742Z,5.40
2019-05-07T20:53:52.282Z,5.30
2019-05-07T20:56:25.279Z,5.00
2019-05-07T20:58:54.083Z,5.00
2019-05-07T21:01:23.648Z,4.90
2019-05-07T21:03:52.822Z,4.80
2019-05-07T21:06:22.474Z,4.50
2019-05-07T21:08:51.491Z,4.40
2019-05-07T21:11:19.959Z,4.40
2019-05-07T21:13:48.787Z,4.40
2019-05-07T21:16:17.340Z,4.10
2019-05-07T21:18:46.163Z,3.60
2019-05-07T21:21:14.715Z,3.90
2019-05-07T21:23:43.613Z,3.80
2019-05-07T21:26:13.234Z,3.70
2019-05-07T21:28:43.269Z,3.40
2019-05-07T21:31:12.150Z,3.20
2019-05-07T21:33:42.678Z,3.30
2019-05-07T21:36:12.065Z,3.30
2019-05-07T21:38:42.480Z,3.30
2019-05-07T21:41:12.842Z,3.20
2019-05-07T21:43:44.221Z,3.00
2019-05-07T21:46:12.789Z,2.90
2019-05-07T21:48:41.535Z,2.90
2019-05-07T21:51:12.267Z,2.90
2019-05-07T21:53:42.972Z,2.90
2019-05-07T21:56:31.491Z,2.80
2019-05-07T21:59:03.070Z,2.70
2019-05-07T22:01:33.611Z,2.50
2019-05-07T22:04:02.134Z,2.60
2019-05-07T22:06:30.603Z,2.60
2019-05-07T22:08:59.330Z,2.60
2019-05-07T22:11:27.855Z,2.60
2019-05-07T22:13:56.329Z,2.50
2019-05-07T22:16:25.127Z,2.40
2019-05-07T22:18:53.599Z,2.40
2019-05-07T22:21:22.051Z,2.30
2019-05-07T22:23:52.217Z,2.30
2019-05-07T22:26:25.699Z,2.30
2019-05-07T22:28:53.796Z,2.20
2019-05-07T22:31:32.889Z,1.80
2019-05-07T22:34:22.263Z,1.90
2019-05-07T22:36:52.100Z,1.90
2019-05-07T22:39:22.141Z,1.90
2019-05-07T22:41:50.739Z,1.70
2019-05-07T22:44:22.712Z,1.80
2019-05-07T22:46:49.939Z,1.60
2019-05-07T22:49:18.727Z,1.70
2019-05-07T22:51:47.183Z,1.80
2019-05-07T22:54:16.007Z,1.90
2019-05-07T22:56:58.415Z,1.90
2019-05-07T22:59:26.887Z,1.90
2019-05-07T23:01:55.683Z,1.80
2019-05-07T23:04:24.159Z,1.50
2019-05-07T23:06:54.103Z,1.60
2019-05-07T23:09:22.988Z,1.60
2019-05-07T23:11:52.587Z,1.40
2019-05-07T23:14:22.809Z,1.40
2019-05-07T23:16:54.992Z,1.50
2019-05-07T23:19:22.297Z,1.50
2019-05-07T23:21:52.177Z,1.30
2019-05-07T23:24:22.642Z,1.30
2019-05-07T23:26:53.584Z,1.30
2019-05-07T23:29:22.665Z,1.20
2019-05-07T23:31:52.885Z,1.20
2019-05-07T23:34:22.231Z,1.20
2019-05-07T23:36:53.061Z,1.20
2019-05-07T23:39:23.033Z,1.10
2019-05-07T23:41:59.403Z,1.00
2019-05-07T23:44:28.296Z,1.00
2019-05-07T23:46:58.055Z,1.10
2019-05-07T23:49:26.519Z,1.00
2019-05-07T23:51:55.287Z,0.90
2019-05-07T23:54:24.183Z,1.00
2019-05-07T23:57:05.027Z,1.00
2019-05-07T23:59:23.507Z,0.90
